sensor_id;sensor_type;location;lat;lon;timestamp;temperature;humidity
33943;DHT22;66763;47.856;17.462;2024-03-08T00:00:29;11.60;54.90
33943;DHT22;66763;47.856;17.462;2024-03-08T00:02:57;11.60;54.90
33943;DHT22;66763;47.856;17.462;2024-03-08T00:05:22;11.60;54.90
33943;DHT22;66763;47.856;17.462;2024-03-08T00:07:48;11.60;54.90
33943;DHT22;66763;47.856;17.462;2024-03-08T00:10:14;11.50;54.80
33943;DHT22;66763;47.856;17.462;2024-03-08T00:12:40;11.50;54.80
33943;DHT22;66763;47.856;17.462;2024-03-08T00:15:12;11.60;54.90
33943;DHT22;66763;47.856;17.462;2024-03-08T00:17:42;11.50;54.90
33943;DHT22;66763;47.856;17.462;2024-03-08T00:20:08;11.60;54.90
33943;DHT22;66763;47.856;17.462;2024-03-08T00:22:34;11.60;54.90
33943;DHT22;66763;47.856;17.462;2024-03-08T00:25:00;11.60;54.90
33943;DHT22;66763;47.856;17.462;2024-03-08T00:27:25;11.60;54.90
33943;DHT22;66763;47.856;17.462;2024-03-08T00:29:50;11.60;54.90
33943;DHT22;66763;47.856;17.462;2024-03-08T00:32:16;11.60;54.80
33943;DHT22;66763;47.856;17.462;2024-03-08T00:34:42;11.60;54.90
33943;DHT22;66763;47.856;17.462;2024-03-08T00:37:08;11.60;54.90
33943;DHT22;66763;47.856;17.462;2024-03-08T00:39:33;11.50;54.80
33943;DHT22;66763;47.856;17.462;2024-03-08T00:41:59;11.50;54.80
33943;DHT22;66763;47.856;17.462;2024-03-08T00:44:24;11.60;54.90
33943;DHT22;66763;47.856;17.462;2024-03-08T00:46:50;11.60;54.90
33943;DHT22;66763;47.856;17.462;2024-03-08T00:49:15;11.50;55.40
33943;DHT22;66763;47.856;17.462;2024-03-08T00:51:42;11.60;54.90
33943;DHT22;66763;47.856;17.462;2024-03-08T00:54:08;11.50;54.80
33943;DHT22;66763;47.856;17.462;2024-03-08T00:56:34;11.60;54.90
33943;DHT22;66763;47.856;17.462;2024-03-08T00:59:01;11.50;54.80
33943;DHT22;66763;47.856;17.462;2024-03-08T01:01:28;11.60;54.90
33943;DHT22;66763;47.856;17.462;2024-03-08T01:03:53;11.50;54.80
33943;DHT22;66763;47.856;17.462;2024-03-08T01:06:18;11.50;54.80
33943;DHT22;66763;47.856;17.462;2024-03-08T01:08:45;11.60;54.90
33943;DHT22;66763;47.856;17.462;2024-03-08T01:11:12;11.60;54.90
33943;DHT22;66763;47.856;17.462;2024-03-08T01:13:38;11.50;54.80
33943;DHT22;66763;47.856;17.462;2024-03-08T01:16:03;11.50;54.80
33943;DHT22;66763;47.856;17.462;2024-03-08T01:18:29;11.50;54.80
33943;DHT22;66763;47.856;17.462;2024-03-08T01:20:54;11.50;54.80
33943;DHT22;66763;47.856;17.462;2024-03-08T01:23:20;11.50;54.80
33943;DHT22;66763;47.856;17.462;2024-03-08T01:25:45;11.50;54.80
33943;DHT22;66763;47.856;17.462;2024-03-08T01:28:11;11.50;54.80
33943;DHT22;66763;47.856;17.462;2024-03-08T01:30:38;11.50;54.80
33943;DHT22;66763;47.856;17.462;2024-03-08T01:33:04;11.60;54.90
33943;DHT22;66763;47.856;17.462;2024-03-08T01:35:29;11.50;54.80
33943;DHT22;66763;47.856;17.462;2024-03-08T01:37:55;11.50;54.80
33943;DHT22;66763;47.856;17.462;2024-03-08T01:40:20;11.50;54.80
33943;DHT22;66763;47.856;17.462;2024-03-08T01:42:46;11.50;54.80
33943;DHT22;66763;47.856;17.462;2024-03-08T01:45:13;11.50;54.80
33943;DHT22;66763;47.856;17.462;2024-03-08T01:47:38;11.50;54.80
33943;DHT22;66763;47.856;17.462;2024-03-08T01:50:04;11.50;54.80
33943;DHT22;66763;47.856;17.462;2024-03-08T01:52:31;11.50;54.80
33943;DHT22;66763;47.856;17.462;2024-03-08T01:55:00;11.50;54.80
33943;DHT22;66763;47.856;17.462;2024-03-08T01:57:27;11.50;54.80
33943;DHT22;66763;47.856;17.462;2024-03-08T01:59:53;11.50;54.80
33943;DHT22;66763;47.856;17.462;2024-03-08T02:02:21;11.50;54.80
33943;DHT22;66763;47.856;17.462;2024-03-08T02:04:47;11.50;54.80
33943;DHT22;66763;47.856;17.462;2024-03-08T02:07:12;11.50;54.80
33943;DHT22;66763;47.856;17.462;2024-03-08T02:09:38;11.50;54.80
33943;DHT22;66763;47.856;17.462;2024-03-08T02:12:04;11.50;54.80
33943;DHT22;66763;47.856;17.462;2024-03-08T02:14:30;11.60;54.80
33943;DHT22;66763;47.856;17.462;2024-03-08T02:17:00;11.50;54.80
33943;DHT22;66763;47.856;17.462;2024-03-08T02:19:25;11.50;54.70
33943;DHT22;66763;47.856;17.462;2024-03-08T02:21:51;11.60;54.70
33943;DHT22;66763;47.856;17.462;2024-03-08T02:24:16;11.70;54.70
33943;DHT22;66763;47.856;17.462;2024-03-08T02:26:42;11.80;54.60
33943;DHT22;66763;47.856;17.462;2024-03-08T02:29:08;11.90;54.50
33943;DHT22;66763;47.856;17.462;2024-03-08T02:31:34;12.00;54.50
33943;DHT22;66763;47.856;17.462;2024-03-08T02:33:59;12.10;54.20
33943;DHT22;66763;47.856;17.462;2024-03-08T02:36:25;12.20;54.20
33943;DHT22;66763;47.856;17.462;2024-03-08T02:38:50;12.30;54.00
33943;DHT22;66763;47.856;17.462;2024-03-08T02:41:16;12.30;53.80
33943;DHT22;66763;47.856;17.462;2024-03-08T02:43:41;12.40;53.80
33943;DHT22;66763;47.856;17.462;2024-03-08T02:46:07;12.40;53.70
33943;DHT22;66763;47.856;17.462;2024-03-08T02:48:32;12.50;53.60
33943;DHT22;66763;47.856;17.462;2024-03-08T02:50:57;12.60;53.40
33943;DHT22;66763;47.856;17.462;2024-03-08T02:53:23;12.60;53.30
33943;DHT22;66763;47.856;17.462;2024-03-08T02:55:49;12.70;53.30
33943;DHT22;66763;47.856;17.462;2024-03-08T02:58:15;12.70;53.20
33943;DHT22;66763;47.856;17.462;2024-03-08T03:00:40;12.70;53.20
33943;DHT22;66763;47.856;17.462;2024-03-08T03:03:06;12.80;53.10
33943;DHT22;66763;47.856;17.462;2024-03-08T03:05:32;12.80;53.10
33943;DHT22;66763;47.856;17.462;2024-03-08T03:07:57;12.80;52.90
33943;DHT22;66763;47.856;17.462;2024-03-08T03:10:23;12.90;52.90
33943;DHT22;66763;47.856;17.462;2024-03-08T03:12:49;12.90;52.90
33943;DHT22;66763;47.856;17.462;2024-03-08T03:15:14;12.90;52.90
33943;DHT22;66763;47.856;17.462;2024-03-08T03:17:45;12.90;52.80
33943;DHT22;66763;47.856;17.462;2024-03-08T03:20:11;12.90;52.70
33943;DHT22;66763;47.856;17.462;2024-03-08T03:22:39;12.90;52.70
33943;DHT22;66763;47.856;17.462;2024-03-08T03:25:06;12.90;52.80
33943;DHT22;66763;47.856;17.462;2024-03-08T03:27:32;12.90;52.70
33943;DHT22;66763;47.856;17.462;2024-03-08T03:29:57;12.90;52.80
33943;DHT22;66763;47.856;17.462;2024-03-08T03:32:23;12.90;52.80
33943;DHT22;66763;47.856;17.462;2024-03-08T03:34:49;12.90;52.90
33943;DHT22;66763;47.856;17.462;2024-03-08T03:37:18;12.80;52.80
33943;DHT22;66763;47.856;17.462;2024-03-08T03:39:44;12.80;52.80
33943;DHT22;66763;47.856;17.462;2024-03-08T03:42:18;12.80;52.90
33943;DHT22;66763;47.856;17.462;2024-03-08T03:44:47;12.80;52.90
33943;DHT22;66763;47.856;17.462;2024-03-08T03:47:13;12.70;53.00
33943;DHT22;66763;47.856;17.462;2024-03-08T03:49:42;12.70;53.10
33943;DHT22;66763;47.856;17.462;2024-03-08T03:52:08;12.70;53.10
33943;DHT22;66763;47.856;17.462;2024-03-08T03:54:33;12.70;53.10
33943;DHT22;66763;47.856;17.462;2024-03-08T03:56:59;12.70;53.20
33943;DHT22;66763;47.856;17.462;2024-03-08T03:59:26;12.70;53.20
33943;DHT22;66763;47.856;17.462;2024-03-08T04:01:51;12.60;53.30
33943;DHT22;66763;47.856;17.462;2024-03-08T04:04:16;12.60;53.30
33943;DHT22;66763;47.856;17.462;2024-03-08T04:06:42;12.60;53.30
33943;DHT22;66763;47.856;17.462;2024-03-08T04:09:07;12.60;53.40
33943;DHT22;66763;47.856;17.462;2024-03-08T04:11:33;12.60;53.40
33943;DHT22;66763;47.856;17.462;2024-03-08T04:13:58;12.50;53.40
33943;DHT22;66763;47.856;17.462;2024-03-08T04:16:24;12.50;53.40
33943;DHT22;66763;47.856;17.462;2024-03-08T04:18:51;12.50;53.50
33943;DHT22;66763;47.856;17.462;2024-03-08T04:21:17;12.50;53.60
33943;DHT22;66763;47.856;17.462;2024-03-08T04:23:44;12.50;53.50
33943;DHT22;66763;47.856;17.462;2024-03-08T04:26:10;12.40;53.50
33943;DHT22;66763;47.856;17.462;2024-03-08T04:28:36;12.40;53.60
33943;DHT22;66763;47.856;17.462;2024-03-08T04:31:03;12.50;53.60
33943;DHT22;66763;47.856;17.462;2024-03-08T04:33:28;12.40;53.60
33943;DHT22;66763;47.856;17.462;2024-03-08T04:35:54;12.40;53.60
33943;DHT22;66763;47.856;17.462;2024-03-08T04:38:19;12.40;53.70
33943;DHT22;66763;47.856;17.462;2024-03-08T04:40:44;12.40;54.30
33943;DHT22;66763;47.856;17.462;2024-03-08T04:43:10;12.40;53.70
33943;DHT22;66763;47.856;17.462;2024-03-08T04:45:36;12.30;53.70
33943;DHT22;66763;47.856;17.462;2024-03-08T04:48:01;12.40;53.70
33943;DHT22;66763;47.856;17.462;2024-03-08T04:50:27;12.30;53.70
33943;DHT22;66763;47.856;17.462;2024-03-08T04:52:54;12.30;53.70
33943;DHT22;66763;47.856;17.462;2024-03-08T04:55:20;12.30;53.90
33943;DHT22;66763;47.856;17.462;2024-03-08T04:57:46;12.30;53.80
33943;DHT22;66763;47.856;17.462;2024-03-08T05:00:12;12.30;53.90
33943;DHT22;66763;47.856;17.462;2024-03-08T05:02:38;12.30;53.90
33943;DHT22;66763;47.856;17.462;2024-03-08T05:05:04;12.30;53.80
33943;DHT22;66763;47.856;17.462;2024-03-08T05:07:31;12.30;53.90
33943;DHT22;66763;47.856;17.462;2024-03-08T05:09:58;12.30;53.90
33943;DHT22;66763;47.856;17.462;2024-03-08T05:12:23;12.30;53.90
33943;DHT22;66763;47.856;17.462;2024-03-08T05:14:49;12.30;54.00
33943;DHT22;66763;47.856;17.462;2024-03-08T05:17:15;12.20;53.90
33943;DHT22;66763;47.856;17.462;2024-03-08T05:19:41;12.20;53.90
33943;DHT22;66763;47.856;17.462;2024-03-08T05:22:07;12.30;54.00
33943;DHT22;66763;47.856;17.462;2024-03-08T05:24:32;12.20;54.00
33943;DHT22;66763;47.856;17.462;2024-03-08T05:26:58;12.20;53.90
33943;DHT22;66763;47.856;17.462;2024-03-08T05:29:25;12.20;54.10
33943;DHT22;66763;47.856;17.462;2024-03-08T05:31:51;12.20;54.00
33943;DHT22;66763;47.856;17.462;2024-03-08T05:34:20;12.20;54.10
33943;DHT22;66763;47.856;17.462;2024-03-08T05:36:46;12.20;54.10
33943;DHT22;66763;47.856;17.462;2024-03-08T05:39:12;12.20;54.00
33943;DHT22;66763;47.856;17.462;2024-03-08T05:41:38;12.20;54.10
33943;DHT22;66763;47.856;17.462;2024-03-08T05:44:04;12.20;54.10
33943;DHT22;66763;47.856;17.462;2024-03-08T05:46:30;12.20;54.70
33943;DHT22;66763;47.856;17.462;2024-03-08T05:48:55;12.10;54.10
33943;DHT22;66763;47.856;17.462;2024-03-08T05:51:23;12.10;54.10
33943;DHT22;66763;47.856;17.462;2024-03-08T05:53:49;12.10;54.10
33943;DHT22;66763;47.856;17.462;2024-03-08T05:56:14;12.10;54.10
33943;DHT22;66763;47.856;17.462;2024-03-08T05:58:39;12.10;54.10
33943;DHT22;66763;47.856;17.462;2024-03-08T06:01:05;12.10;54.20
33943;DHT22;66763;47.856;17.462;2024-03-08T06:03:33;12.10;54.10
33943;DHT22;66763;47.856;17.462;2024-03-08T06:05:59;12.10;54.10
33943;DHT22;66763;47.856;17.462;2024-03-08T06:08:24;12.10;54.20
33943;DHT22;66763;47.856;17.462;2024-03-08T06:10:55;12.10;54.10
33943;DHT22;66763;47.856;17.462;2024-03-08T06:13:21;12.10;54.20
33943;DHT22;66763;47.856;17.462;2024-03-08T06:15:46;12.10;54.10
33943;DHT22;66763;47.856;17.462;2024-03-08T06:18:11;12.10;54.20
33943;DHT22;66763;47.856;17.462;2024-03-08T06:20:37;12.10;54.10
33943;DHT22;66763;47.856;17.462;2024-03-08T06:23:02;12.00;54.20
33943;DHT22;66763;47.856;17.462;2024-03-08T06:25:28;12.00;54.20
33943;DHT22;66763;47.856;17.462;2024-03-08T06:27:53;12.00;54.20
33943;DHT22;66763;47.856;17.462;2024-03-08T06:30:19;12.00;54.20
33943;DHT22;66763;47.856;17.462;2024-03-08T06:32:45;12.00;54.20
33943;DHT22;66763;47.856;17.462;2024-03-08T06:35:11;12.00;54.20
33943;DHT22;66763;47.856;17.462;2024-03-08T06:37:36;12.00;54.20
33943;DHT22;66763;47.856;17.462;2024-03-08T06:40:02;12.00;54.20
33943;DHT22;66763;47.856;17.462;2024-03-08T06:42:28;12.00;54.20
33943;DHT22;66763;47.856;17.462;2024-03-08T06:44:54;12.00;54.20
33943;DHT22;66763;47.856;17.462;2024-03-08T06:47:25;12.00;54.20
33943;DHT22;66763;47.856;17.462;2024-03-08T06:49:51;12.00;54.20
33943;DHT22;66763;47.856;17.462;2024-03-08T06:52:17;12.00;54.20
33943;DHT22;66763;47.856;17.462;2024-03-08T06:54:42;12.00;54.30
33943;DHT22;66763;47.856;17.462;2024-03-08T06:57:08;12.00;54.30
33943;DHT22;66763;47.856;17.462;2024-03-08T06:59:35;12.00;54.30
33943;DHT22;66763;47.856;17.462;2024-03-08T07:02:01;12.00;54.30
33943;DHT22;66763;47.856;17.462;2024-03-08T07:04:27;12.00;54.20
33943;DHT22;66763;47.856;17.462;2024-03-08T07:06:57;12.00;54.20
33943;DHT22;66763;47.856;17.462;2024-03-08T07:09:23;12.00;54.20
33943;DHT22;66763;47.856;17.462;2024-03-08T07:11:50;11.90;54.20
33943;DHT22;66763;47.856;17.462;2024-03-08T07:14:22;12.00;54.20
33943;DHT22;66763;47.856;17.462;2024-03-08T07:16:48;11.90;54.20
33943;DHT22;66763;47.856;17.462;2024-03-08T07:19:14;12.00;54.20
33943;DHT22;66763;47.856;17.462;2024-03-08T07:21:40;11.90;54.20
33943;DHT22;66763;47.856;17.462;2024-03-08T07:24:07;11.90;54.20
33943;DHT22;66763;47.856;17.462;2024-03-08T07:26:41;11.90;54.20
33943;DHT22;66763;47.856;17.462;2024-03-08T07:29:07;11.90;54.20
33943;DHT22;66763;47.856;17.462;2024-03-08T07:31:33;11.90;54.30
33943;DHT22;66763;47.856;17.462;2024-03-08T07:34:01;11.90;54.20
33943;DHT22;66763;47.856;17.462;2024-03-08T07:36:28;11.90;54.20
33943;DHT22;66763;47.856;17.462;2024-03-08T07:38:54;11.90;54.20
33943;DHT22;66763;47.856;17.462;2024-03-08T07:41:19;11.90;54.20
33943;DHT22;66763;47.856;17.462;2024-03-08T07:43:45;11.90;54.20
33943;DHT22;66763;47.856;17.462;2024-03-08T07:46:10;11.90;54.20
33943;DHT22;66763;47.856;17.462;2024-03-08T07:48:36;11.90;54.20
33943;DHT22;66763;47.856;17.462;2024-03-08T07:51:02;11.90;54.20
33943;DHT22;66763;47.856;17.462;2024-03-08T07:53:28;11.90;54.20
33943;DHT22;66763;47.856;17.462;2024-03-08T07:55:54;11.90;54.20
33943;DHT22;66763;47.856;17.462;2024-03-08T07:58:19;11.90;54.20
33943;DHT22;66763;47.856;17.462;2024-03-08T08:00:45;11.90;54.20
33943;DHT22;66763;47.856;17.462;2024-03-08T08:03:10;11.90;54.20
33943;DHT22;66763;47.856;17.462;2024-03-08T08:05:36;11.90;54.20
33943;DHT22;66763;47.856;17.462;2024-03-08T08:08:04;11.90;54.20
33943;DHT22;66763;47.856;17.462;2024-03-08T08:10:34;11.90;54.20
33943;DHT22;66763;47.856;17.462;2024-03-08T08:13:00;11.90;54.20
33943;DHT22;66763;47.856;17.462;2024-03-08T08:15:25;11.90;54.20
33943;DHT22;66763;47.856;17.462;2024-03-08T08:17:53;11.90;54.20
33943;DHT22;66763;47.856;17.462;2024-03-08T08:20:18;11.90;54.20
33943;DHT22;66763;47.856;17.462;2024-03-08T08:22:44;11.90;54.30
33943;DHT22;66763;47.856;17.462;2024-03-08T08:25:09;11.90;54.30
33943;DHT22;66763;47.856;17.462;2024-03-08T08:27:38;11.90;54.20
33943;DHT22;66763;47.856;17.462;2024-03-08T08:30:05;11.90;54.20
33943;DHT22;66763;47.856;17.462;2024-03-08T08:32:36;11.90;54.30
33943;DHT22;66763;47.856;17.462;2024-03-08T08:35:02;11.90;54.30
33943;DHT22;66763;47.856;17.462;2024-03-08T08:37:30;11.90;54.30
33943;DHT22;66763;47.856;17.462;2024-03-08T08:39:56;11.80;54.20
33943;DHT22;66763;47.856;17.462;2024-03-08T08:42:23;11.90;54.20
33943;DHT22;66763;47.856;17.462;2024-03-08T08:44:48;11.80;54.20
33943;DHT22;66763;47.856;17.462;2024-03-08T08:47:16;11.80;54.20
33943;DHT22;66763;47.856;17.462;2024-03-08T08:49:44;11.90;54.30
33943;DHT22;66763;47.856;17.462;2024-03-08T08:52:11;11.80;54.20
33943;DHT22;66763;47.856;17.462;2024-03-08T08:54:36;11.90;54.30
33943;DHT22;66763;47.856;17.462;2024-03-08T08:57:02;11.90;54.30
33943;DHT22;66763;47.856;17.462;2024-03-08T08:59:35;11.90;54.30
33943;DHT22;66763;47.856;17.462;2024-03-08T09:02:01;11.90;54.30
33943;DHT22;66763;47.856;17.462;2024-03-08T09:04:27;11.90;54.30
33943;DHT22;66763;47.856;17.462;2024-03-08T09:06:52;11.90;54.30
33943;DHT22;66763;47.856;17.462;2024-03-08T09:09:19;11.90;54.30
33943;DHT22;66763;47.856;17.462;2024-03-08T09:11:45;11.80;54.20
33943;DHT22;66763;47.856;17.462;2024-03-08T09:14:11;11.80;54.20
33943;DHT22;66763;47.856;17.462;2024-03-08T09:16:37;11.80;54.20
33943;DHT22;66763;47.856;17.462;2024-03-08T09:19:02;11.80;54.30
33943;DHT22;66763;47.856;17.462;2024-03-08T09:21:28;11.80;54.20
33943;DHT22;66763;47.856;17.462;2024-03-08T09:23:53;11.80;54.20
33943;DHT22;66763;47.856;17.462;2024-03-08T09:26:19;11.80;54.30
33943;DHT22;66763;47.856;17.462;2024-03-08T09:28:44;11.80;54.30
33943;DHT22;66763;47.856;17.462;2024-03-08T09:31:11;11.80;54.20
33943;DHT22;66763;47.856;17.462;2024-03-08T09:33:36;11.80;54.20
33943;DHT22;66763;47.856;17.462;2024-03-08T09:36:02;11.80;54.20
33943;DHT22;66763;47.856;17.462;2024-03-08T09:38:29;11.80;54.30
33943;DHT22;66763;47.856;17.462;2024-03-08T09:40:54;11.80;54.30
33943;DHT22;66763;47.856;17.462;2024-03-08T09:43:22;11.80;54.30
33943;DHT22;66763;47.856;17.462;2024-03-08T09:45:49;11.80;54.30
33943;DHT22;66763;47.856;17.462;2024-03-08T09:48:14;11.80;54.30
33943;DHT22;66763;47.856;17.462;2024-03-08T09:50:42;11.80;54.30
33943;DHT22;66763;47.856;17.462;2024-03-08T09:53:08;11.80;54.20
33943;DHT22;66763;47.856;17.462;2024-03-08T09:55:37;11.80;54.30
33943;DHT22;66763;47.856;17.462;2024-03-08T09:58:05;11.80;54.30
33943;DHT22;66763;47.856;17.462;2024-03-08T10:00:43;11.80;54.30
33943;DHT22;66763;47.856;17.462;2024-03-08T10:03:08;11.80;54.30
33943;DHT22;66763;47.856;17.462;2024-03-08T10:05:34;11.80;54.30
33943;DHT22;66763;47.856;17.462;2024-03-08T10:07:59;11.80;54.30
33943;DHT22;66763;47.856;17.462;2024-03-08T10:10:25;11.80;54.30
33943;DHT22;66763;47.856;17.462;2024-03-08T10:12:51;11.80;54.30
33943;DHT22;66763;47.856;17.462;2024-03-08T10:15:17;11.80;54.30
33943;DHT22;66763;47.856;17.462;2024-03-08T10:17:42;11.80;54.30
33943;DHT22;66763;47.856;17.462;2024-03-08T10:20:18;11.80;54.30
33943;DHT22;66763;47.856;17.462;2024-03-08T10:22:44;11.80;54.30
33943;DHT22;66763;47.856;17.462;2024-03-08T10:25:10;11.80;54.30
33943;DHT22;66763;47.856;17.462;2024-03-08T10:27:36;11.80;54.30
33943;DHT22;66763;47.856;17.462;2024-03-08T10:30:02;11.80;54.30
33943;DHT22;66763;47.856;17.462;2024-03-08T10:32:27;11.80;54.30
33943;DHT22;66763;47.856;17.462;2024-03-08T10:34:53;11.80;54.30
33943;DHT22;66763;47.856;17.462;2024-03-08T10:37:21;11.80;54.30
33943;DHT22;66763;47.856;17.462;2024-03-08T10:39:52;11.80;54.30
33943;DHT22;66763;47.856;17.462;2024-03-08T10:42:19;11.80;54.30
33943;DHT22;66763;47.856;17.462;2024-03-08T10:44:51;11.80;54.30
33943;DHT22;66763;47.856;17.462;2024-03-08T10:47:26;11.80;54.30
33943;DHT22;66763;47.856;17.462;2024-03-08T10:49:59;11.80;54.30
33943;DHT22;66763;47.856;17.462;2024-03-08T10:52:29;11.80;54.90
33943;DHT22;66763;47.856;17.462;2024-03-08T10:54:54;11.80;54.30
33943;DHT22;66763;47.856;17.462;2024-03-08T10:57:21;11.80;54.30
33943;DHT22;66763;47.856;17.462;2024-03-08T10:59:49;11.80;54.30
33943;DHT22;66763;47.856;17.462;2024-03-08T11:02:15;11.80;54.30
33943;DHT22;66763;47.856;17.462;2024-03-08T11:04:45;11.80;54.30
33943;DHT22;66763;47.856;17.462;2024-03-08T11:07:11;11.80;54.30
33943;DHT22;66763;47.856;17.462;2024-03-08T11:09:42;11.80;54.40
33943;DHT22;66763;47.856;17.462;2024-03-08T11:12:29;11.80;54.30
33943;DHT22;66763;47.856;17.462;2024-03-08T11:14:55;11.80;54.30
33943;DHT22;66763;47.856;17.462;2024-03-08T11:17:21;11.80;54.40
33943;DHT22;66763;47.856;17.462;2024-03-08T11:19:50;11.80;54.40
33943;DHT22;66763;47.856;17.462;2024-03-08T11:22:26;11.80;54.40
33943;DHT22;66763;47.856;17.462;2024-03-08T11:24:52;11.80;54.40
33943;DHT22;66763;47.856;17.462;2024-03-08T11:27:18;11.80;54.40
33943;DHT22;66763;47.856;17.462;2024-03-08T11:29:58;11.80;54.40
33943;DHT22;66763;47.856;17.462;2024-03-08T11:32:27;11.80;55.00
33943;DHT22;66763;47.856;17.462;2024-03-08T11:34:53;11.70;54.30
33943;DHT22;66763;47.856;17.462;2024-03-08T11:37:19;11.80;54.40
33943;DHT22;66763;47.856;17.462;2024-03-08T11:39:46;11.80;54.40
33943;DHT22;66763;47.856;17.462;2024-03-08T11:42:12;11.70;54.30
33943;DHT22;66763;47.856;17.462;2024-03-08T11:44:38;11.80;54.40
33943;DHT22;66763;47.856;17.462;2024-03-08T11:47:08;11.80;54.40
33943;DHT22;66763;47.856;17.462;2024-03-08T11:49:34;11.70;54.30
33943;DHT22;66763;47.856;17.462;2024-03-08T11:51:59;11.80;54.40
33943;DHT22;66763;47.856;17.462;2024-03-08T11:54:24;11.80;54.40
33943;DHT22;66763;47.856;17.462;2024-03-08T11:56:51;11.70;54.30
33943;DHT22;66763;47.856;17.462;2024-03-08T11:59:17;11.80;55.00
33943;DHT22;66763;47.856;17.462;2024-03-08T12:01:43;11.80;54.40
33943;DHT22;66763;47.856;17.462;2024-03-08T12:04:11;11.70;54.30
33943;DHT22;66763;47.856;17.462;2024-03-08T12:06:40;11.70;54.30
33943;DHT22;66763;47.856;17.462;2024-03-08T12:09:09;11.70;54.30
33943;DHT22;66763;47.856;17.462;2024-03-08T12:11:36;11.80;54.40
33943;DHT22;66763;47.856;17.462;2024-03-08T12:14:01;11.70;54.30
33943;DHT22;66763;47.856;17.462;2024-03-08T12:16:27;11.70;54.40
33943;DHT22;66763;47.856;17.462;2024-03-08T12:18:53;11.80;54.40
33943;DHT22;66763;47.856;17.462;2024-03-08T12:21:21;11.70;54.40
33943;DHT22;66763;47.856;17.462;2024-03-08T12:24:01;11.70;54.30
33943;DHT22;66763;47.856;17.462;2024-03-08T12:26:28;11.80;54.40
33943;DHT22;66763;47.856;17.462;2024-03-08T12:28:53;11.80;54.40
33943;DHT22;66763;47.856;17.462;2024-03-08T12:31:19;11.70;54.30
33943;DHT22;66763;47.856;17.462;2024-03-08T12:33:50;11.70;54.30
33943;DHT22;66763;47.856;17.462;2024-03-08T12:36:16;11.70;54.30
33943;DHT22;66763;47.856;17.462;2024-03-08T12:38:45;11.70;54.40
33943;DHT22;66763;47.856;17.462;2024-03-08T12:41:14;11.70;54.30
33943;DHT22;66763;47.856;17.462;2024-03-08T12:43:40;11.80;54.40
33943;DHT22;66763;47.856;17.462;2024-03-08T12:46:06;11.70;54.30
33943;DHT22;66763;47.856;17.462;2024-03-08T12:48:35;11.70;54.40
33943;DHT22;66763;47.856;17.462;2024-03-08T12:51:08;11.70;54.30
33943;DHT22;66763;47.856;17.462;2024-03-08T12:53:34;11.70;54.30
33943;DHT22;66763;47.856;17.462;2024-03-08T12:56:00;11.70;54.40
33943;DHT22;66763;47.856;17.462;2024-03-08T12:58:25;11.70;54.30
33943;DHT22;66763;47.856;17.462;2024-03-08T13:00:51;11.70;54.30
33943;DHT22;66763;47.856;17.462;2024-03-08T13:03:17;11.70;54.30
33943;DHT22;66763;47.856;17.462;2024-03-08T13:05:42;11.70;54.30
33943;DHT22;66763;47.856;17.462;2024-03-08T13:08:08;11.70;54.30
33943;DHT22;66763;47.856;17.462;2024-03-08T13:10:41;11.70;54.40
33943;DHT22;66763;47.856;17.462;2024-03-08T13:13:09;11.70;54.40
33943;DHT22;66763;47.856;17.462;2024-03-08T13:15:35;11.70;54.30
33943;DHT22;66763;47.856;17.462;2024-03-08T13:18:01;11.70;54.40
33943;DHT22;66763;47.856;17.462;2024-03-08T13:20:26;11.70;54.30
33943;DHT22;66763;47.856;17.462;2024-03-08T13:22:53;11.70;54.30
33943;DHT22;66763;47.856;17.462;2024-03-08T13:25:19;11.70;54.30
33943;DHT22;66763;47.856;17.462;2024-03-08T13:27:45;11.70;54.30
33943;DHT22;66763;47.856;17.462;2024-03-08T13:30:11;11.70;54.30
33943;DHT22;66763;47.856;17.462;2024-03-08T13:32:43;11.70;54.30
33943;DHT22;66763;47.856;17.462;2024-03-08T13:35:09;11.70;54.30
33943;DHT22;66763;47.856;17.462;2024-03-08T13:37:40;11.70;54.30
33943;DHT22;66763;47.856;17.462;2024-03-08T13:40:06;11.70;54.30
33943;DHT22;66763;47.856;17.462;2024-03-08T13:42:38;11.70;54.30
33943;DHT22;66763;47.856;17.462;2024-03-08T13:45:05;11.70;54.40
33943;DHT22;66763;47.856;17.462;2024-03-08T13:47:32;11.70;54.30
33943;DHT22;66763;47.856;17.462;2024-03-08T13:49:59;11.70;54.30
33943;DHT22;66763;47.856;17.462;2024-03-08T13:52:26;11.70;54.30
33943;DHT22;66763;47.856;17.462;2024-03-08T13:54:54;11.70;54.30
33943;DHT22;66763;47.856;17.462;2024-03-08T13:57:20;11.70;54.30
33943;DHT22;66763;47.856;17.462;2024-03-08T13:59:45;11.70;54.30
33943;DHT22;66763;47.856;17.462;2024-03-08T14:02:11;11.70;54.30
33943;DHT22;66763;47.856;17.462;2024-03-08T14:04:38;11.70;54.20
33943;DHT22;66763;47.856;17.462;2024-03-08T14:07:05;11.70;54.30
33943;DHT22;66763;47.856;17.462;2024-03-08T14:09:33;11.70;54.30
33943;DHT22;66763;47.856;17.462;2024-03-08T14:12:05;11.70;54.30
33943;DHT22;66763;47.856;17.462;2024-03-08T14:14:32;11.70;54.30
33943;DHT22;66763;47.856;17.462;2024-03-08T14:17:00;11.70;54.30
33943;DHT22;66763;47.856;17.462;2024-03-08T14:19:27;11.70;54.30
33943;DHT22;66763;47.856;17.462;2024-03-08T14:21:52;11.70;54.30
33943;DHT22;66763;47.856;17.462;2024-03-08T14:24:18;11.70;54.30
33943;DHT22;66763;47.856;17.462;2024-03-08T14:26:44;11.70;54.30
33943;DHT22;66763;47.856;17.462;2024-03-08T14:29:10;11.70;54.30
33943;DHT22;66763;47.856;17.462;2024-03-08T14:31:38;11.70;54.30
33943;DHT22;66763;47.856;17.462;2024-03-08T14:34:05;11.70;54.20
33943;DHT22;66763;47.856;17.462;2024-03-08T14:36:32;11.70;54.20
33943;DHT22;66763;47.856;17.462;2024-03-08T14:38:58;11.70;54.30
33943;DHT22;66763;47.856;17.462;2024-03-08T14:41:23;11.70;54.30
33943;DHT22;66763;47.856;17.462;2024-03-08T14:43:49;11.70;54.20
33943;DHT22;66763;47.856;17.462;2024-03-08T14:46:15;11.70;54.20
33943;DHT22;66763;47.856;17.462;2024-03-08T14:48:46;11.70;54.30
33943;DHT22;66763;47.856;17.462;2024-03-08T14:51:12;11.70;54.30
33943;DHT22;66763;47.856;17.462;2024-03-08T14:53:42;11.70;54.30
33943;DHT22;66763;47.856;17.462;2024-03-08T14:56:10;11.70;54.20
33943;DHT22;66763;47.856;17.462;2024-03-08T14:58:42;11.70;54.30
33943;DHT22;66763;47.856;17.462;2024-03-08T15:01:09;11.70;54.20
33943;DHT22;66763;47.856;17.462;2024-03-08T15:03:35;11.80;54.30
33943;DHT22;66763;47.856;17.462;2024-03-08T15:06:02;11.70;54.20
33943;DHT22;66763;47.856;17.462;2024-03-08T15:08:31;11.70;54.20
33943;DHT22;66763;47.856;17.462;2024-03-08T15:10:57;11.70;54.20